createdAt,value
2018-11-06T00:00:50.648Z,100.0
2018-11-06T00:02:50.781Z,100.0
2018-11-06T00:04:50.280Z,100.0
2018-11-06T00:06:50.237Z,100.0
2018-11-06T00:08:50.504Z,100.0
2018-11-06T00:10:50.635Z,100.0
2018-11-06T00:12:50.751Z,100.0
2018-11-06T00:14:50.002Z,100.0
2018-11-06T00:16:50.275Z,100.0
2018-11-06T00:18:50.415Z,100.0
2018-11-06T00:20:50.602Z,100.0
2018-11-06T00:22:50.734Z,100.0
2018-11-06T00:24:50.989Z,100.0
2018-11-06T00:26:50.319Z,100.0
2018-11-06T00:28:50.495Z,100.0
2018-11-06T00:30:50.690Z,100.0
2018-11-06T00:32:50.804Z,100.0
2018-11-06T00:34:50.456Z,100.0
2018-11-06T00:36:50.745Z,100.0
2018-11-06T00:38:50.949Z,100.0
2018-11-06T00:40:50.207Z,100.0
2018-11-06T00:42:50.348Z,100.0
2018-11-06T00:44:50.539Z,100.0
2018-11-06T00:46:50.873Z,100.0
2018-11-06T00:48:50.071Z,100.0
2018-11-06T00:50:50.348Z,100.0
2018-11-06T00:52:50.530Z,100.0
2018-11-06T00:54:50.698Z,100.0
2018-11-06T00:56:50.131Z,100.0
2018-11-06T00:58:50.250Z,100.0
2018-11-06T01:00:50.431Z,100.0
2018-11-06T01:02:50.521Z,100.0
2018-11-06T01:04:50.063Z,100.0
2018-11-06T01:06:50.517Z,100.0
2018-11-06T01:08:50.725Z,100.0
2018-11-06T01:10:50.864Z,100.0
2018-11-06T01:12:50.108Z,100.0
2018-11-06T01:14:50.226Z,100.0
2018-11-06T01:16:50.498Z,100.0
2018-11-06T01:18:50.787Z,100.0
2018-11-06T01:20:50.032Z,100.0
2018-11-06T01:22:50.206Z,100.0
2018-11-06T01:24:50.396Z,100.0
2018-11-06T01:26:50.783Z,100.0
2018-11-06T01:28:49.965Z,100.0
2018-11-06T01:30:50.320Z,100.0
2018-11-06T01:32:50.554Z,100.0
2018-11-06T01:34:50.102Z,100.0
2018-11-06T01:36:50.504Z,100.0
2018-11-06T01:38:50.795Z,100.0
2018-11-06T01:40:50.928Z,100.0
2018-11-06T01:42:50.110Z,100.0
2018-11-06T01:44:50.312Z,100.0
2018-11-06T01:46:50.591Z,100.0
2018-11-06T01:48:50.744Z,100.0
2018-11-06T01:50:50.005Z,100.0
2018-11-06T01:52:50.184Z,100.0
2018-11-06T01:54:50.363Z,100.0
2018-11-06T01:56:50.723Z,100.0
2018-11-06T01:58:50.925Z,100.0
2018-11-06T02:00:50.121Z,100.0
2018-11-06T02:02:50.221Z,100.0
2018-11-06T02:04:50.711Z,100.0
2018-11-06T02:06:50.137Z,100.0
2018-11-06T02:08:50.320Z,100.0
2018-11-06T02:10:50.543Z,100.0
2018-11-06T02:12:50.722Z,100.0
2018-11-06T02:14:50.130Z,100.0
2018-11-06T02:16:50.494Z,100.0
2018-11-06T02:18:50.803Z,100.0
2018-11-06T02:20:49.971Z,100.0
2018-11-06T02:22:50.415Z,100.0
2018-11-06T02:24:50.628Z,100.0
2018-11-06T02:26:50.212Z,100.0
2018-11-06T02:28:50.432Z,100.0
2018-11-06T02:30:50.687Z,100.0
2018-11-06T02:32:50.016Z,100.0
2018-11-06T02:34:50.489Z,100.0
2018-11-06T02:36:50.934Z,100.0
2018-11-06T02:38:50.339Z,100.0
2018-11-06T02:40:50.548Z,100.0
2018-11-06T02:42:50.711Z,100.0
2018-11-06T02:44:50.825Z,100.0
2018-11-06T02:46:50.270Z,100.0
2018-11-06T02:48:50.397Z,100.0
2018-11-06T02:50:50.561Z,100.0
2018-11-06T02:52:50.868Z,100.0
2018-11-06T02:54:49.983Z,100.0
2018-11-06T02:56:50.354Z,100.0
2018-11-06T02:58:50.493Z,100.0
2018-11-06T03:00:50.707Z,100.0
2018-11-06T03:02:50.851Z,100.0
2018-11-06T03:04:50.487Z,100.0
2018-11-06T03:06:49.950Z,100.0
2018-11-06T03:08:50.497Z,100.0
2018-11-06T03:10:50.698Z,100.0
2018-11-06T03:12:50.813Z,100.0
2018-11-06T03:14:50.060Z,100.0
2018-11-06T03:16:50.930Z,100.0
2018-11-06T03:18:50.132Z,100.0
2018-11-06T03:20:50.340Z,100.0
2018-11-06T03:22:50.541Z,100.0
2018-11-06T03:24:50.776Z,100.0
2018-11-06T03:26:50.599Z,100.0
2018-11-06T03:28:50.753Z,100.0
2018-11-06T03:30:50.953Z,100.0
2018-11-06T03:32:50.176Z,100.0
2018-11-06T03:34:50.670Z,100.0
2018-11-06T03:36:50.069Z,100.0
2018-11-06T03:38:50.333Z,100.0
2018-11-06T03:40:50.515Z,100.0
2018-11-06T03:42:50.631Z,100.0
2018-11-06T03:44:50.746Z,100.0
2018-11-06T03:46:50.225Z,100.0
2018-11-06T03:48:50.359Z,100.0
2018-11-06T03:50:50.527Z,100.0
2018-11-06T03:52:50.693Z,100.0
2018-11-06T03:54:50.894Z,100.0
2018-11-06T03:56:50.215Z,100.0
2018-11-06T03:58:50.345Z,100.0
2018-11-06T04:00:50.603Z,100.0
2018-11-06T04:02:50.695Z,100.0
2018-11-06T04:04:50.455Z,100.0
2018-11-06T04:06:50.915Z,100.0
2018-11-06T04:08:50.055Z,100.0
2018-11-06T04:10:50.181Z,100.0
2018-11-06T04:12:50.332Z,100.0
2018-11-06T04:14:50.558Z,100.0
2018-11-06T04:16:50.053Z,100.0
2018-11-06T04:18:50.214Z,100.0
2018-11-06T04:20:50.454Z,100.0
2018-11-06T04:22:50.643Z,100.0
2018-11-06T04:24:50.758Z,100.0
2018-11-06T04:26:50.208Z,100.0
2018-11-06T04:28:50.344Z,100.0
2018-11-06T04:30:50.495Z,100.0
2018-11-06T04:32:50.663Z,100.0
2018-11-06T04:34:50.089Z,100.0
2018-11-06T04:36:50.470Z,100.0
2018-11-06T04:38:50.533Z,100.0
2018-11-06T04:40:50.660Z,100.0
2018-11-06T04:42:50.851Z,100.0
2018-11-06T04:44:50.066Z,100.0
2018-11-06T04:46:50.416Z,100.0
2018-11-06T04:48:50.533Z,100.0
2018-11-06T04:50:50.754Z,100.0
2018-11-06T04:52:50.013Z,100.0
2018-11-06T04:54:50.167Z,100.0
2018-11-06T04:56:50.575Z,100.0
2018-11-06T04:58:50.647Z,100.0
2018-11-06T05:00:50.781Z,100.0
2018-11-06T05:02:50.938Z,100.0
2018-11-06T05:04:50.658Z,100.0
2018-11-06T05:06:50.653Z,100.0
2018-11-06T05:08:50.898Z,100.0
2018-11-06T05:10:50.037Z,100.0
2018-11-06T05:12:50.221Z,100.0
2018-11-06T05:14:50.377Z,100.0
2018-11-06T05:16:50.782Z,100.0
2018-11-06T05:18:50.917Z,100.0
2018-11-06T05:20:50.188Z,100.0
2018-11-06T05:22:50.427Z,100.0
2018-11-06T05:24:50.604Z,100.0
2018-11-06T05:26:50.750Z,100.0
2018-11-06T05:28:50.000Z,100.0
2018-11-06T05:30:50.133Z,100.0
2018-11-06T05:32:50.967Z,100.0
2018-11-06T05:34:51.534Z,100.0
2018-11-06T05:36:50.909Z,100.0
2018-11-06T05:38:50.417Z,100.0
2018-11-06T05:40:50.764Z,100.0
2018-11-06T05:42:50.920Z,100.0
2018-11-06T05:44:50.120Z,100.0
2018-11-06T05:46:50.488Z,100.0
2018-11-06T05:48:50.674Z,100.0
2018-11-06T05:50:50.873Z,100.0
2018-11-06T05:52:50.056Z,100.0
2018-11-06T05:54:50.204Z,100.0
2018-11-06T05:56:50.601Z,100.0
2018-11-06T05:58:50.763Z,100.0
2018-11-06T06:00:50.017Z,100.0
2018-11-06T06:02:50.239Z,100.0
2018-11-06T06:04:50.613Z,100.0
2018-11-06T06:06:50.933Z,100.0
2018-11-06T06:08:50.125Z,100.0
2018-11-06T06:10:50.333Z,100.0
2018-11-06T06:12:50.443Z,100.0
2018-11-06T06:14:50.699Z,100.0
2018-11-06T06:16:51.334Z,100.0
2018-11-06T06:18:50.576Z,100.0
2018-11-06T06:20:50.844Z,100.0
2018-11-06T06:22:49.943Z,100.0
2018-11-06T06:24:50.145Z,100.0
2018-11-06T06:26:50.535Z,100.0
2018-11-06T06:28:50.688Z,100.0
2018-11-06T06:30:50.887Z,100.0
2018-11-06T06:32:49.912Z,100.0
2018-11-06T06:34:50.366Z,100.0
2018-11-06T06:36:50.009Z,100.0
2018-11-06T06:38:50.718Z,100.0
2018-11-06T06:40:50.368Z,100.0
2018-11-06T06:42:50.393Z,100.0
2018-11-06T06:44:50.419Z,100.0
2018-11-06T06:46:50.557Z,100.0
2018-11-06T06:48:50.521Z,100.0
2018-11-06T06:50:50.557Z,100.0
2018-11-06T06:52:50.477Z,100.0
2018-11-06T06:54:50.753Z,100.0
2018-11-06T06:56:49.918Z,100.0
2018-11-06T06:58:49.952Z,100.0
2018-11-06T07:00:50.041Z,100.0
2018-11-06T07:02:50.091Z,100.0
2018-11-06T07:04:50.369Z,100.0
2018-11-06T07:06:50.482Z,100.0
2018-11-06T07:08:50.441Z,100.0
2018-11-06T07:10:50.513Z,100.0
2018-11-06T07:12:51.052Z,100.0
2018-11-06T07:14:50.033Z,100.0
2018-11-06T07:16:50.216Z,100.0
2018-11-06T07:18:50.210Z,100.0
2018-11-06T07:20:50.195Z,100.0
2018-11-06T07:22:50.212Z,100.0
2018-11-06T07:24:50.299Z,100.0
2018-11-06T07:26:50.397Z,100.0
2018-11-06T07:28:51.023Z,100.0
2018-11-06T07:30:50.046Z,100.0
2018-11-06T07:32:50.049Z,100.0
2018-11-06T07:34:51.364Z,100.0
2018-11-06T07:36:50.656Z,100.0
2018-11-06T07:38:50.650Z,100.0
2018-11-06T07:40:51.028Z,100.0
2018-11-06T07:42:50.098Z,100.0
2018-11-06T07:44:50.034Z,100.0
2018-11-06T07:46:50.136Z,100.0
2018-11-06T07:48:50.109Z,100.0
2018-11-06T07:50:50.048Z,100.0
2018-11-06T07:52:50.091Z,100.0
2018-11-06T07:54:50.038Z,100.0
2018-11-06T07:56:50.171Z,100.0
2018-11-06T07:58:50.144Z,100.0
2018-11-06T08:00:50.125Z,100.0
2018-11-06T08:02:50.143Z,100.0
2018-11-06T08:04:50.380Z,100.0
2018-11-06T08:06:50.544Z,100.0
2018-11-06T08:08:50.464Z,82
2018-11-06T08:10:50.498Z,100.0
2018-11-06T08:12:50.651Z,100.0
2018-11-06T08:14:51.058Z,82
2018-11-06T08:16:50.347Z,100.0
2018-11-06T08:18:50.296Z,100.0
2018-11-06T08:20:50.254Z,100.0
2018-11-06T08:22:50.209Z,82
2018-11-06T08:24:50.230Z,82
2018-11-06T08:26:50.392Z,83
2018-11-06T08:28:50.357Z,83
2018-11-06T08:30:52.239Z,83
2018-11-06T08:32:53.491Z,83
2018-11-06T08:34:49.804Z,83
2018-11-06T08:36:50.230Z,83
2018-11-06T08:38:50.264Z,82
2018-11-06T08:40:50.292Z,82
2018-11-06T08:42:50.269Z,82
2018-11-06T08:44:50.224Z,82
2018-11-06T08:46:50.372Z,82
2018-11-06T08:48:50.340Z,82
2018-11-06T08:50:50.285Z,82
2018-11-06T08:52:50.247Z,82
2018-11-06T08:54:50.228Z,82
2018-11-06T08:56:50.402Z,82
2018-11-06T08:58:50.432Z,82
2018-11-06T09:00:50.415Z,82
2018-11-06T09:02:50.390Z,82
2018-11-06T09:04:50.745Z,82
2018-11-06T09:06:49.944Z,82
2018-11-06T09:08:50.562Z,81
2018-11-06T09:10:50.682Z,81
2018-11-06T09:12:50.673Z,81
2018-11-06T09:14:50.697Z,81
2018-11-06T09:16:50.171Z,80
2018-11-06T09:18:50.370Z,80
2018-11-06T09:20:50.340Z,80
2018-11-06T09:22:50.444Z,80
2018-11-06T09:24:50.390Z,80
2018-11-06T09:26:50.413Z,79
2018-11-06T09:28:50.422Z,78
2018-11-06T09:30:50.801Z,78
2018-11-06T09:32:49.812Z,78
2018-11-06T09:34:50.270Z,78
2018-11-06T09:36:50.442Z,78
2018-11-06T09:38:50.335Z,78
2018-11-06T09:40:50.281Z,77
2018-11-06T09:42:50.290Z,77
2018-11-06T09:44:50.611Z,77
2018-11-06T09:46:49.813Z,76
2018-11-06T09:48:50.108Z,76
2018-11-06T09:50:50.098Z,76
2018-11-06T09:52:50.052Z,75
2018-11-06T09:54:50.045Z,75
2018-11-06T09:56:50.131Z,75
2018-11-06T09:58:50.028Z,75
2018-11-06T10:00:50.123Z,74
2018-11-06T10:02:50.120Z,74
2018-11-06T10:04:50.410Z,73
2018-11-06T10:06:53.130Z,73
2018-11-06T10:08:50.431Z,73
2018-11-06T10:10:49.823Z,72
2018-11-06T10:12:49.778Z,72
2018-11-06T10:14:50.769Z,72
2018-11-06T10:16:50.055Z,71
2018-11-06T10:18:50.040Z,71
2018-11-06T10:20:50.074Z,70
2018-11-06T10:22:50.051Z,70
2018-11-06T10:24:49.982Z,70
2018-11-06T10:26:50.406Z,70
2018-11-06T10:28:50.517Z,69
2018-11-06T10:30:50.896Z,69
2018-11-06T10:32:50.060Z,69
2018-11-06T10:34:50.417Z,69
2018-11-06T10:36:50.537Z,69
2018-11-06T10:38:50.529Z,68
2018-11-06T10:40:50.637Z,68
2018-11-06T10:42:50.602Z,68
2018-11-06T10:44:50.628Z,68
2018-11-06T10:46:49.835Z,68
2018-11-06T10:48:49.868Z,68
2018-11-06T10:50:49.844Z,67
2018-11-06T10:52:49.882Z,67
2018-11-06T10:54:49.939Z,67
2018-11-06T10:56:50.109Z,67
2018-11-06T10:58:50.118Z,67
2018-11-06T11:00:50.073Z,67
2018-11-06T11:02:50.093Z,67
2018-11-06T11:04:50.562Z,67
2018-11-06T11:06:50.009Z,66
2018-11-06T11:08:50.234Z,66
2018-11-06T11:10:50.462Z,66
2018-11-06T11:12:50.711Z,66
2018-11-06T11:14:50.825Z,66
2018-11-06T11:16:50.333Z,66
2018-11-06T11:18:50.467Z,66
2018-11-06T11:20:50.638Z,64
2018-11-06T11:22:50.857Z,65
2018-11-06T11:24:49.929Z,65
2018-11-06T11:26:50.414Z,65
2018-11-06T11:28:50.576Z,64
2018-11-06T11:30:50.725Z,64
2018-11-06T11:32:50.827Z,64
2018-11-06T11:34:50.245Z,64
2018-11-06T11:36:50.579Z,64
2018-11-06T11:38:50.713Z,63
2018-11-06T11:40:49.971Z,63
2018-11-06T11:42:50.153Z,63
2018-11-06T11:44:50.312Z,63
2018-11-06T11:46:50.673Z,64
2018-11-06T11:48:50.791Z,62
2018-11-06T11:50:49.995Z,63
2018-11-06T11:52:50.250Z,63
2018-11-06T11:54:50.425Z,62
2018-11-06T11:56:50.862Z,62
2018-11-06T11:58:50.131Z,62
2018-11-06T12:00:50.286Z,62
2018-11-06T12:02:50.491Z,62
2018-11-06T12:04:49.948Z,62
2018-11-06T12:06:50.409Z,62
2018-11-06T12:08:50.505Z,62
2018-11-06T12:10:50.661Z,62
2018-11-06T12:12:50.821Z,62
2018-11-06T12:14:49.952Z,62
2018-11-06T12:16:50.318Z,62
2018-11-06T12:18:50.475Z,62
2018-11-06T12:20:50.682Z,62
2018-11-06T12:22:50.771Z,62
2018-11-06T12:24:52.209Z,62
2018-11-06T12:26:50.623Z,62
2018-11-06T12:28:50.734Z,63
2018-11-06T12:30:50.939Z,63
2018-11-06T12:32:50.209Z,63
2018-11-06T12:34:50.719Z,63
2018-11-06T12:36:50.371Z,63
2018-11-06T12:38:50.605Z,63
2018-11-06T12:40:50.689Z,63
2018-11-06T12:42:51.303Z,63
2018-11-06T12:44:50.446Z,63
2018-11-06T12:46:50.710Z,63
2018-11-06T12:48:50.840Z,63
2018-11-06T12:50:49.943Z,63
2018-11-06T12:52:50.078Z,63
2018-11-06T12:54:50.233Z,62
2018-11-06T12:56:50.545Z,62
2018-11-06T12:58:50.701Z,62
2018-11-06T13:00:50.814Z,62
2018-11-06T13:02:50.038Z,62
2018-11-06T13:04:50.405Z,62
2018-11-06T13:06:50.799Z,61
2018-11-06T13:08:49.981Z,61
2018-11-06T13:10:50.064Z,61
2018-11-06T13:12:50.244Z,60
2018-11-06T13:14:50.463Z,60
2018-11-06T13:16:51.143Z,60
2018-11-06T13:18:50.639Z,60
2018-11-06T13:20:50.887Z,60
2018-11-06T13:22:50.298Z,60
2018-11-06T13:24:50.537Z,61
2018-11-06T13:26:50.028Z,61
2018-11-06T13:28:50.234Z,60
2018-11-06T13:30:51.469Z,59
2018-11-06T13:32:50.777Z,59
2018-11-06T13:34:49.977Z,59
2018-11-06T13:36:50.404Z,58
2018-11-06T13:38:50.145Z,58
2018-11-06T13:40:50.580Z,58
2018-11-06T13:42:52.882Z,58
2018-11-06T13:44:54.191Z,58
2018-11-06T13:46:50.931Z,58
2018-11-06T13:48:50.273Z,58
2018-11-06T13:50:50.519Z,58
2018-11-06T13:52:50.788Z,58
2018-11-06T13:54:49.963Z,58
2018-11-06T13:56:50.419Z,58
2018-11-06T13:58:50.549Z,58
2018-11-06T14:00:50.722Z,59
2018-11-06T14:02:50.877Z,59
2018-11-06T14:04:50.471Z,59
2018-11-06T14:06:50.759Z,59
2018-11-06T14:08:50.005Z,59
2018-11-06T14:10:50.196Z,59
2018-11-06T14:12:50.491Z,60.0
2018-11-06T14:14:50.795Z,60.4
2018-11-06T14:16:50.252Z,61.7
2018-11-06T14:18:50.453Z,61.2
2018-11-06T14:20:50.651Z,62.7
2018-11-06T14:22:50.821Z,62.7
2018-11-06T14:24:50.040Z,63.8
2018-11-06T14:26:50.749Z,63.6
2018-11-06T14:28:49.974Z,64.3
2018-11-06T14:30:50.303Z,65.3
2018-11-06T14:32:50.554Z,65.8
2018-11-06T14:34:50.962Z,65.5
2018-11-06T14:36:50.408Z,65.5
2018-11-06T14:38:50.530Z,66.2
2018-11-06T14:40:50.656Z,67.3
2018-11-06T14:42:51.649Z,67.3
2018-11-06T14:44:50.772Z,67.3
2018-11-06T14:46:50.226Z,67.7
2018-11-06T14:48:51.395Z,67.9
2018-11-06T14:50:50.710Z,67.8
2018-11-06T14:52:50.825Z,68.9
2018-11-06T14:54:49.973Z,68.8
2018-11-06T14:56:50.599Z,69.6
2018-11-06T14:58:50.107Z,69.6
2018-11-06T15:00:50.804Z,69.8
2018-11-06T15:02:50.499Z,70.5
2018-11-06T15:04:50.077Z,70.6
2018-11-06T15:06:50.397Z,71.4
2018-11-06T15:08:50.561Z,71.6
2018-11-06T15:10:50.765Z,72.2
2018-11-06T15:12:51.981Z,72.2
2018-11-06T15:14:50.167Z,72.9
2018-11-06T15:16:50.492Z,73.0
2018-11-06T15:18:50.643Z,74.0
2018-11-06T15:20:51.405Z,74.2
2018-11-06T15:22:50.656Z,74.2
2018-11-06T15:24:50.806Z,75.5
2018-11-06T15:26:50.185Z,75.8
2018-11-06T15:28:50.270Z,75.9
2018-11-06T15:30:50.400Z,76.7
2018-11-06T15:32:50.565Z,77.4
2018-11-06T15:34:50.017Z,78.2
2018-11-06T15:36:50.404Z,78.2
2018-11-06T15:38:50.580Z,78.9
2018-11-06T15:40:51.401Z,79.7
2018-11-06T15:42:50.579Z,80.1
2018-11-06T15:44:50.792Z,81.1
2018-11-06T15:46:50.154Z,81.3
2018-11-06T15:48:52.083Z,82.2
2018-11-06T15:50:50.400Z,82.4
2018-11-06T15:52:50.642Z,83.4
2018-11-06T15:54:50.854Z,83.8
2018-11-06T15:56:50.080Z,84.2
2018-11-06T15:58:50.296Z,84.5
2018-11-06T16:00:51.539Z,85.7
2018-11-06T16:02:50.805Z,85.9
2018-11-06T16:04:50.517Z,86.6
2018-11-06T16:06:50.873Z,86.7
2018-11-06T16:08:50.083Z,86.7
2018-11-06T16:10:50.275Z,86.9
2018-11-06T16:12:50.621Z,86.9
2018-11-06T16:14:50.843Z,86.7
2018-11-06T16:16:50.189Z,87.3
2018-11-06T16:18:50.307Z,87.7
2018-11-06T16:20:51.137Z,87.7
2018-11-06T16:22:50.274Z,88.2
2018-11-06T16:24:50.395Z,88.1
2018-11-06T16:26:50.769Z,88.2
2018-11-06T16:28:50.878Z,88.6
2018-11-06T16:30:50.046Z,89.5
2018-11-06T16:32:50.525Z,89.7
2018-11-06T16:34:49.979Z,90.1
2018-11-06T16:36:50.391Z,90.3
2018-11-06T16:38:50.572Z,90.4
2018-11-06T16:40:50.717Z,90.9
2018-11-06T16:42:51.006Z,90.9
2018-11-06T16:44:50.152Z,91.0
2018-11-06T16:46:50.586Z,91.7
2018-11-06T16:48:50.787Z,91.8
2018-11-06T16:50:50.889Z,91.9
2018-11-06T16:52:50.233Z,91.9
2018-11-06T16:54:50.349Z,92.3
2018-11-06T16:56:51.017Z,92.1
2018-11-06T16:58:50.213Z,91.9
2018-11-06T17:00:51.770Z,91.9
2018-11-06T17:02:49.957Z,91.5
2018-11-06T17:04:50.632Z,91.7
2018-11-06T17:06:50.941Z,91.9
2018-11-06T17:08:49.987Z,91.9
2018-11-06T17:10:50.178Z,91.8
2018-11-06T17:12:50.321Z,91.4
2018-11-06T17:14:50.473Z,91.4
2018-11-06T17:16:49.971Z,90.2
2018-11-06T17:18:50.243Z,90.8
2018-11-06T17:20:50.419Z,90.7
2018-11-06T17:22:50.594Z,90.9
2018-11-06T17:24:50.885Z,91.3
2018-11-06T17:26:50.264Z,91.5
2018-11-06T17:28:50.236Z,91.5
2018-11-06T17:30:50.259Z,91.8
2018-11-06T17:32:50.253Z,91.8
2018-11-06T17:34:50.736Z,91.8
2018-11-06T17:36:49.982Z,92.0
2018-11-06T17:38:50.171Z,92.2
2018-11-06T17:40:50.392Z,92.3
2018-11-06T17:42:50.586Z,92.3
2018-11-06T17:44:50.775Z,92.3
2018-11-06T17:46:50.170Z,92.6
2018-11-06T17:48:50.220Z,92.8
2018-11-06T17:50:50.377Z,93.2
2018-11-06T17:52:50.569Z,93.6
2018-11-06T17:54:51.007Z,93.5
2018-11-06T17:56:50.372Z,93.5
2018-11-06T17:58:50.588Z,93.9
2018-11-06T18:00:50.756Z,94.1
2018-11-06T18:02:50.886Z,94.0
2018-11-06T18:04:50.623Z,93.5
2018-11-06T18:06:50.155Z,93.5
2018-11-06T18:08:50.314Z,93.5
2018-11-06T18:10:50.484Z,93.6
2018-11-06T18:12:50.764Z,93.6
2018-11-06T18:14:50.026Z,94.1
2018-11-06T18:16:50.430Z,94.2
2018-11-06T18:18:50.601Z,94.4
2018-11-06T18:20:50.779Z,94.3
2018-11-06T18:22:50.000Z,94.7
2018-11-06T18:24:50.215Z,94.5
2018-11-06T18:26:50.675Z,94.7
2018-11-06T18:28:50.910Z,94.9
2018-11-06T18:30:50.102Z,95.3
2018-11-06T18:32:50.227Z,95.3
2018-11-06T18:34:50.677Z,95.9
2018-11-06T18:36:50.096Z,96.5
2018-11-06T18:38:50.302Z,96.7
2018-11-06T18:40:50.600Z,97.4
2018-11-06T18:42:50.718Z,97.8
2018-11-06T18:44:50.883Z,97.8
2018-11-06T18:46:50.313Z,98.7
2018-11-06T18:48:50.466Z,98.6
2018-11-06T18:50:50.680Z,99.2
2018-11-06T18:52:50.778Z,99.6
2018-11-06T18:54:50.048Z,99.5
2018-11-06T18:56:50.473Z,99.6
2018-11-06T18:58:50.678Z,99.6
2018-11-06T19:00:50.942Z,99.9
2018-11-06T19:02:50.188Z,100.0
2018-11-06T19:04:50.736Z,100.0
2018-11-06T19:06:50.130Z,100.0
2018-11-06T19:08:50.305Z,100.0
2018-11-06T19:10:51.452Z,100.0
2018-11-06T19:12:50.819Z,100.0
2018-11-06T19:14:50.016Z,100.0
2018-11-06T19:16:51.060Z,100.0
2018-11-06T19:18:50.220Z,100.0
2018-11-06T19:20:50.395Z,100.0
2018-11-06T19:22:50.633Z,100.0
2018-11-06T19:24:50.820Z,100.0
2018-11-06T19:26:50.179Z,100.0
2018-11-06T19:28:50.368Z,100.0
2018-11-06T19:30:50.475Z,100.0
2018-11-06T19:32:50.717Z,100.0
2018-11-06T19:34:50.198Z,100.0
2018-11-06T19:36:50.676Z,100.0
2018-11-06T19:38:50.925Z,100.0
2018-11-06T19:40:50.044Z,100.0
2018-11-06T19:42:50.205Z,100.0
2018-11-06T19:44:50.341Z,100.0
2018-11-06T19:46:50.723Z,100.0
2018-11-06T19:48:51.406Z,100.0
2018-11-06T19:50:50.610Z,100.0
2018-11-06T19:52:51.770Z,100.0
2018-11-06T19:54:49.954Z,100.0
2018-11-06T19:56:51.183Z,100.0
2018-11-06T19:58:50.442Z,100.0
2018-11-06T20:00:50.780Z,100.0
2018-11-06T20:02:50.442Z,100.0
2018-11-06T20:04:50.033Z,100.0
2018-11-06T20:06:50.327Z,100.0
2018-11-06T20:08:50.534Z,100.0
2018-11-06T20:10:50.738Z,100.0
2018-11-06T20:12:50.000Z,100.0
2018-11-06T20:14:50.175Z,100.0
2018-11-06T20:16:50.519Z,100.0
2018-11-06T20:18:50.643Z,100.0
2018-11-06T20:20:50.760Z,100.0
2018-11-06T20:22:49.949Z,100.0
2018-11-06T20:24:50.132Z,100.0
2018-11-06T20:26:50.420Z,100.0
2018-11-06T20:28:50.511Z,100.0
2018-11-06T20:30:50.726Z,100.0
2018-11-06T20:32:50.841Z,100.0
2018-11-06T20:34:50.245Z,100.0
2018-11-06T20:36:50.588Z,100.0
2018-11-06T20:38:50.628Z,100.0
2018-11-06T20:40:50.816Z,100.0
2018-11-06T20:42:52.408Z,100.0
2018-11-06T20:44:50.668Z,100.0
2018-11-06T20:46:50.005Z,100.0
2018-11-06T20:48:50.664Z,100.0
2018-11-06T20:50:50.877Z,100.0
2018-11-06T20:52:50.892Z,100.0
2018-11-06T20:54:50.148Z,100.0
2018-11-06T20:56:50.424Z,100.0
2018-11-06T20:58:50.558Z,100.0
2018-11-06T21:00:50.685Z,100.0
2018-11-06T21:02:50.824Z,100.0
2018-11-06T21:04:50.510Z,100.0
2018-11-06T21:06:51.440Z,100.0
2018-11-06T21:08:50.658Z,100.0
2018-11-06T21:10:51.764Z,100.0
2018-11-06T21:12:50.123Z,100.0
2018-11-06T21:14:50.447Z,100.0
2018-11-06T21:16:50.675Z,100.0
2018-11-06T21:18:50.844Z,100.0
2018-11-06T21:20:50.062Z,100.0
2018-11-06T21:22:50.211Z,100.0
2018-11-06T21:24:51.431Z,100.0
2018-11-06T21:26:52.195Z,100.0
2018-11-06T21:28:50.462Z,100.0
2018-11-06T21:30:50.563Z,100.0
2018-11-06T21:32:50.681Z,100.0
2018-11-06T21:34:50.253Z,100.0
2018-11-06T21:36:50.654Z,100.0
2018-11-06T21:38:51.010Z,100.0
2018-11-06T21:40:50.186Z,100.0
2018-11-06T21:42:50.359Z,100.0
2018-11-06T21:44:50.456Z,100.0
2018-11-06T21:46:50.879Z,100.0
2018-11-06T21:48:50.142Z,100.0
2018-11-06T21:50:50.256Z,100.0
2018-11-06T21:52:50.439Z,100.0
2018-11-06T21:54:51.420Z,100.0
2018-11-06T21:56:50.797Z,100.0
2018-11-06T21:58:51.025Z,100.0
2018-11-06T22:00:51.134Z,100.0
2018-11-06T22:02:50.395Z,100.0
2018-11-06T22:04:50.784Z,100.0
2018-11-06T22:06:50.325Z,100.0
2018-11-06T22:08:50.473Z,100.0
2018-11-06T22:10:50.600Z,100.0
2018-11-06T22:12:51.266Z,100.0
2018-11-06T22:14:50.472Z,100.0
2018-11-06T22:16:50.951Z,100.0
2018-11-06T22:18:50.076Z,100.0
2018-11-06T22:20:50.291Z,100.0
2018-11-06T22:22:50.418Z,100.0
2018-11-06T22:24:50.583Z,100.0
2018-11-06T22:26:50.941Z,100.0
2018-11-06T22:28:50.121Z,100.0
2018-11-06T22:30:50.274Z,100.0
2018-11-06T22:32:50.860Z,100.0
2018-11-06T22:34:50.590Z,100.0
2018-11-06T22:36:51.156Z,100.0
2018-11-06T22:38:50.284Z,100.0
2018-11-06T22:40:50.463Z,100.0
2018-11-06T22:42:50.597Z,100.0
2018-11-06T22:44:50.741Z,100.0
2018-11-06T22:46:50.095Z,100.0
2018-11-06T22:48:50.218Z,100.0
2018-11-06T22:50:50.340Z,100.0
2018-11-06T22:52:50.558Z,100.0
2018-11-06T22:54:50.773Z,100.0
2018-11-06T22:56:50.229Z,100.0
2018-11-06T22:58:50.385Z,100.0
2018-11-06T23:00:50.605Z,100.0
2018-11-06T23:02:50.583Z,100.0
2018-11-06T23:04:49.974Z,100.0
2018-11-06T23:06:51.818Z,100.0
2018-11-06T23:08:50.092Z,100.0
2018-11-06T23:10:50.322Z,100.0
2018-11-06T23:12:50.528Z,100.0
2018-11-06T23:14:50.853Z,100.0
2018-11-06T23:16:50.201Z,100.0
2018-11-06T23:18:50.323Z,100.0
2018-11-06T23:20:50.574Z,100.0
2018-11-06T23:22:50.703Z,100.0
2018-11-06T23:24:51.628Z,100.0
2018-11-06T23:26:50.008Z,100.0
2018-11-06T23:28:50.203Z,100.0
2018-11-06T23:30:50.388Z,100.0
2018-11-06T23:32:50.537Z,100.0
2018-11-06T23:34:50.070Z,100.0
2018-11-06T23:36:50.342Z,100.0
2018-11-06T23:38:50.533Z,100.0
2018-11-06T23:40:50.709Z,100.0
2018-11-06T23:42:50.851Z,100.0
2018-11-06T23:44:50.071Z,100.0
2018-11-06T23:46:50.482Z,100.0
2018-11-06T23:48:50.725Z,100.0
2018-11-06T23:50:49.971Z,100.0
2018-11-06T23:52:50.146Z,100.0
2018-11-06T23:54:50.298Z,100.0
2018-11-06T23:56:50.611Z,100.0
2018-11-06T23:58:50.760Z,100.0
